Monday, November 19, 2018, 2:12 AM EST
Back to Local

KSBY, Salisbury-wicomico Cty Reg

Location: Salisbury, MD, United States Lat: 38.333
Local Time: 2:12 AM EST ( 7:12 GMT) Lon: -75.5
Time Zone: US/Eastern Elev: 52 ft

Show me the last for .
Show Coded

Time T Td Feel RH Dir Speed Gust Alt SLP Vis Weather Sky Remarks
2018-11-19 01:54 36 35 - 96 - Calm - 30.18 30.18 10 CLR None
2018-11-19 00:54 37 37 - 100 - Calm - 30.18 30.19 9 CLR 6-hr Min Temp (1am): 37.0°F
6-hr Max Temp (1am): 43.0°F
2018-11-18 23:54 37 37 - 100 - Calm - 30.20 30.21 10 CLR 24-hr Min Temp (12am): 30.0°F
24-hr Max Temp (12am): 55.0°F
2018-11-18 22:54 39 38 - 95 - Calm - 30.20 30.21 10 CLR None
2018-11-18 21:54 40 39 38 96 110° 3 - 30.21 30.22 10 CLR None
2018-11-18 20:54 41 41 - 100 - Calm - 30.23 30.23 10 CLR None
2018-11-18 19:54 41 41 39 100 100° 3 - 30.24 30.25 10 CLR None
2018-11-18 18:54 41 40 37 95 130° 6 - 30.25 30.25 10 CLR 6-hr Min Temp (7pm): 41.0°F
6-hr Max Temp (7pm): 55.0°F
2018-11-18 17:54 42 41 40 95 110° 3 - 30.26 30.27 10 CLR None
2018-11-18 16:54 48 42 45 79 130° 6 - 30.26 30.27 10 CLR None
2018-11-18 15:54 52 42 - 68 140° 7 - 30.26 30.27 10 FEW031 None
2018-11-18 14:54 53 42 - 66 180° 7 - 30.27 30.27 10 CLR None
2018-11-18 13:54 54 40 - 58 150° 6 - 30.28 30.29 10 FEW035 None
2018-11-18 12:54 54 40 - 58 170° 6 - 30.31 30.31 10 SCT034 6-hr Min Temp (1pm): 30.0°F
6-hr Max Temp (1pm): 54.0°F
2018-11-18 11:54 52 39 - 61 130° 12 - 30.32 30.33 10 CLR None
2018-11-18 10:54 50 39 47 65 110° 8 - 30.36 30.37 10 CLR None
2018-11-18 09:54 48 38 44 67 90° 8 - 30.37 30.38 10 CLR None
2018-11-18 08:54 43 39 - 85 - Calm - 30.39 30.40 10 CLR None
2018-11-18 07:54 34 33 - 96 - Calm - 30.39 30.40 8 CLR None
2018-11-18 06:54 30 29 - 95 - Calm - 30.37 30.38 10 CLR 6-hr Min Temp (7am): 30.0°F
6-hr Max Temp (7am): 32.0°F
2018-11-18 05:54 30 30 - 100 - Calm - 30.35 30.36 9 CLR None
2018-11-18 04:54 30 29 - 95 - Calm - 30.35 30.35 8 CLR None
2018-11-18 03:54 31 30 - 96 - Calm - 30.34 30.35 7 CLR None
2018-11-18 02:54 31 30 - 96 - Calm - 30.35 30.35 8 CLR None

Support USWX by starting your Amazon purchase here.